< Typhoon 199910 1999 Season Typhoon 199912 >
Typhoon 199911 (DORA)
General InformationTrack Information on Google MapsDetailed Wind InformationList of All Images || Disaster Info.ResourceGoogle EarthGE AnimationAtom FeedGeoJSON
Detalied Best Track (Time Zone = UTC)
Year Month Day Hour Lat. Long. Pressure (hPa) Wind (kt) Class Image Chart
1999 8 19 18 17.6 180.9 990 50 7 Image Chart
1999 8 20 00 18.0 179.2 990 50 4 Image Chart
1999 8 20 06 18.5 178.3 994 45 3 Image Chart
1999 8 20 12 19.2 177.3 996 45 3 Image Chart
1999 8 20 18 19.8 176.4 998 45 3 Image Chart
1999 8 21 00 20.3 175.5 1000 45 3 Image Chart
1999 8 21 06 21.0 174.5 1000 40 3 Image Chart
1999 8 21 12 21.6 173.4 1004 40 3 Image Chart
1999 8 21 18 22.2 172.3 1004 35 3 Image Chart
1999 8 22 00 22.6 171.1 1004 35 3 Image Chart
1999 8 22 06 23.5 170.4 1002 35 3 Image Chart
1999 8 22 12 23.8 169.8 1004 35 3 Image Chart
1999 8 22 18 24.4 169.1 1006 35 3 Image Chart
1999 8 23 00 25.5 168.4 1008 35 3 Image Chart
1999 8 23 06 26.4 167.7 1012 0 2 Image Chart
1999 8 23 12 26.8 167.4 1014 0 2 Image Chart
1999 8 23 18 27.2 167.1 1014 0 2 Image Chart
1999 8 24 00 27.7 166.8 1016 0 2 Image Chart
1999 8 24 06 28.2 166.4 1016 0 2 Image Chart
1999 8 24 12 29.2 166.0 1016 0 2 Image Chart
1999 8 24 18 30.5 165.5 1016 0 2 Image Chart
1999 8 25 00 32.3 165.8 1016 0 2 Image Chart
1999 8 25 06 34.1 166.3 1014 0 2 Image Chart
1999 8 25 12 35.6 166.5 1016 0 2 Image Chart
1999 8 25 18 37.2 166.8 1014 0 2 Image Chart
1999 8 26 00 38.9 167.3 1014 0 2 Image Chart
Japan Meteorological Agency Best Track Data | Correction Date : 2013-11-22
< Typhoon 199910 1999 Season Typhoon 199912 >

Help